sensor_id;sensor_type;location;lat;lon;timestamp;P1;durP1;ratioP1;P2;durP2;ratioP2
29302;SDS011;60019;45.556;12.004;2022-11-25T00:01:54;31.15;;;20.08;;
29302;SDS011;60019;45.556;12.004;2022-11-25T00:07:56;28.48;;;20.45;;
29302;SDS011;60019;45.556;12.004;2022-11-25T00:13:58;27.95;;;20.00;;
29302;SDS011;60019;45.556;12.004;2022-11-25T00:20:00;27.15;;;19.00;;
29302;SDS011;60019;45.556;12.004;2022-11-25T00:26:08;25.95;;;18.20;;
29302;SDS011;60019;45.556;12.004;2022-11-25T00:32:10;27.50;;;18.73;;
29302;SDS011;60019;45.556;12.004;2022-11-25T00:38:12;29.48;;;17.23;;
29302;SDS011;60019;45.556;12.004;2022-11-25T00:44:15;23.60;;;17.42;;
29302;SDS011;60019;45.556;12.004;2022-11-25T00:50:35;26.55;;;17.38;;
29302;SDS011;60019;45.556;12.004;2022-11-25T00:56:37;23.05;;;16.77;;
29302;SDS011;60019;45.556;12.004;2022-11-25T01:02:39;24.75;;;16.52;;
29302;SDS011;60019;45.556;12.004;2022-11-25T01:08:41;25.00;;;17.33;;
29302;SDS011;60019;45.556;12.004;2022-11-25T01:14:43;25.73;;;15.88;;
29302;SDS011;60019;45.556;12.004;2022-11-25T01:20:48;22.05;;;15.93;;
29302;SDS011;60019;45.556;12.004;2022-11-25T01:26:49;23.70;;;16.45;;
29302;SDS011;60019;45.556;12.004;2022-11-25T01:32:51;20.70;;;14.77;;
29302;SDS011;60019;45.556;12.004;2022-11-25T01:38:54;20.73;;;15.00;;
29302;SDS011;60019;45.556;12.004;2022-11-25T01:45:17;23.13;;;15.00;;
29302;SDS011;60019;45.556;12.004;2022-11-25T01:57:34;17.85;;;13.52;;
29302;SDS011;60019;45.556;12.004;2022-11-25T02:03:40;21.15;;;15.13;;
29302;SDS011;60019;45.556;12.004;2022-11-25T02:09:42;21.52;;;13.93;;
29302;SDS011;60019;45.556;12.004;2022-11-25T02:15:47;17.75;;;12.77;;
29302;SDS011;60019;45.556;12.004;2022-11-25T02:21:50;20.65;;;13.85;;
29302;SDS011;60019;45.556;12.004;2022-11-25T02:28:04;18.75;;;14.30;;
29302;SDS011;60019;45.556;12.004;2022-11-25T02:34:07;17.25;;;12.88;;
29302;SDS011;60019;45.556;12.004;2022-11-25T02:40:10;19.15;;;12.45;;
29302;SDS011;60019;45.556;12.004;2022-11-25T02:46:13;16.80;;;12.32;;
29302;SDS011;60019;45.556;12.004;2022-11-25T02:52:19;16.67;;;12.18;;
29302;SDS011;60019;45.556;12.004;2022-11-25T02:58:21;17.67;;;11.55;;
29302;SDS011;60019;45.556;12.004;2022-11-25T03:04:23;26.17;;;12.05;;
29302;SDS011;60019;45.556;12.004;2022-11-25T03:10:25;16.00;;;11.98;;
29302;SDS011;60019;45.556;12.004;2022-11-25T03:16:27;17.75;;;11.68;;
29302;SDS011;60019;45.556;12.004;2022-11-25T03:22:29;16.20;;;11.38;;
29302;SDS011;60019;45.556;12.004;2022-11-25T03:28:30;18.15;;;11.25;;
29302;SDS011;60019;45.556;12.004;2022-11-25T03:34:32;16.45;;;11.50;;
29302;SDS011;60019;45.556;12.004;2022-11-25T03:40:35;15.63;;;11.88;;
29302;SDS011;60019;45.556;12.004;2022-11-25T03:46:36;15.52;;;12.18;;
29302;SDS011;60019;45.556;12.004;2022-11-25T03:52:41;13.23;;;10.98;;
29302;SDS011;60019;45.556;12.004;2022-11-25T03:58:43;16.98;;;11.38;;
29302;SDS011;60019;45.556;12.004;2022-11-25T04:04:46;15.10;;;11.30;;
29302;SDS011;60019;45.556;12.004;2022-11-25T04:10:50;12.40;;;10.35;;
29302;SDS011;60019;45.556;12.004;2022-11-25T04:16:57;16.30;;;11.55;;
29302;SDS011;60019;45.556;12.004;2022-11-25T04:22:58;12.68;;;9.75;;
29302;SDS011;60019;45.556;12.004;2022-11-25T04:29:01;15.68;;;9.82;;
29302;SDS011;60019;45.556;12.004;2022-11-25T04:35:03;13.82;;;10.10;;
29302;SDS011;60019;45.556;12.004;2022-11-25T04:41:06;18.27;;;10.25;;
29302;SDS011;60019;45.556;12.004;2022-11-25T04:47:13;12.77;;;9.00;;
29302;SDS011;60019;45.556;12.004;2022-11-25T04:53:15;15.50;;;10.30;;
29302;SDS011;60019;45.556;12.004;2022-11-25T04:59:17;12.40;;;8.55;;
29302;SDS011;60019;45.556;12.004;2022-11-25T05:11:39;13.98;;;9.35;;
29302;SDS011;60019;45.556;12.004;2022-11-25T05:17:41;11.50;;;8.65;;
29302;SDS011;60019;45.556;12.004;2022-11-25T05:23:43;13.13;;;8.68;;
29302;SDS011;60019;45.556;12.004;2022-11-25T05:29:45;16.88;;;8.95;;
29302;SDS011;60019;45.556;12.004;2022-11-25T05:35:54;12.75;;;8.30;;
29302;SDS011;60019;45.556;12.004;2022-11-25T05:48:00;10.63;;;7.40;;
29302;SDS011;60019;45.556;12.004;2022-11-25T05:54:03;11.65;;;8.88;;
29302;SDS011;60019;45.556;12.004;2022-11-25T06:00:08;16.75;;;9.00;;
29302;SDS011;60019;45.556;12.004;2022-11-25T06:06:15;13.00;;;8.95;;
29302;SDS011;60019;45.556;12.004;2022-11-25T06:12:19;9.93;;;7.85;;
29302;SDS011;60019;45.556;12.004;2022-11-25T06:18:23;10.77;;;8.55;;
29302;SDS011;60019;45.556;12.004;2022-11-25T06:24:24;27.08;;;9.48;;
29302;SDS011;60019;45.556;12.004;2022-11-25T06:30:32;12.18;;;8.60;;
29302;SDS011;60019;45.556;12.004;2022-11-25T06:36:48;10.48;;;7.97;;
29302;SDS011;60019;45.556;12.004;2022-11-25T06:42:50;13.70;;;8.65;;
29302;SDS011;60019;45.556;12.004;2022-11-25T06:48:52;11.95;;;8.15;;
29302;SDS011;60019;45.556;12.004;2022-11-25T06:54:54;13.95;;;8.00;;
29302;SDS011;60019;45.556;12.004;2022-11-25T07:07:33;13.05;;;9.13;;
29302;SDS011;60019;45.556;12.004;2022-11-25T07:13:35;15.18;;;9.35;;
29302;SDS011;60019;45.556;12.004;2022-11-25T07:19:37;13.70;;;10.43;;
29302;SDS011;60019;45.556;12.004;2022-11-25T07:25:40;17.95;;;10.02;;
29302;SDS011;60019;45.556;12.004;2022-11-25T07:31:43;17.20;;;11.50;;
29302;SDS011;60019;45.556;12.004;2022-11-25T07:37:45;16.15;;;10.93;;
29302;SDS011;60019;45.556;12.004;2022-11-25T07:43:48;18.65;;;10.43;;
29302;SDS011;60019;45.556;12.004;2022-11-25T07:49:54;17.38;;;10.23;;
29302;SDS011;60019;45.556;12.004;2022-11-25T07:55:58;19.88;;;11.10;;
29302;SDS011;60019;45.556;12.004;2022-11-25T08:02:00;16.88;;;10.40;;
29302;SDS011;60019;45.556;12.004;2022-11-25T08:08:03;14.65;;;10.50;;
29302;SDS011;60019;45.556;12.004;2022-11-25T08:14:05;16.83;;;10.55;;
29302;SDS011;60019;45.556;12.004;2022-11-25T08:20:06;13.00;;;9.27;;
29302;SDS011;60019;45.556;12.004;2022-11-25T08:26:10;10.77;;;9.05;;
29302;SDS011;60019;45.556;12.004;2022-11-25T08:32:12;12.10;;;8.10;;
29302;SDS011;60019;45.556;12.004;2022-11-25T08:38:13;11.45;;;8.15;;
29302;SDS011;60019;45.556;12.004;2022-11-25T08:44:16;11.63;;;8.65;;
29302;SDS011;60019;45.556;12.004;2022-11-25T08:50:18;10.77;;;7.55;;
29302;SDS011;60019;45.556;12.004;2022-11-25T08:56:21;12.35;;;8.60;;
29302;SDS011;60019;45.556;12.004;2022-11-25T09:02:23;8.50;;;6.55;;
29302;SDS011;60019;45.556;12.004;2022-11-25T09:08:25;12.68;;;7.50;;
29302;SDS011;60019;45.556;12.004;2022-11-25T09:14:26;11.32;;;7.53;;
29302;SDS011;60019;45.556;12.004;2022-11-25T09:20:29;7.85;;;5.72;;
29302;SDS011;60019;45.556;12.004;2022-11-25T09:26:31;8.95;;;6.10;;
29302;SDS011;60019;45.556;12.004;2022-11-25T09:32:35;12.82;;;8.75;;
29302;SDS011;60019;45.556;12.004;2022-11-25T09:38:37;53.00;;;26.73;;
29302;SDS011;60019;45.556;12.004;2022-11-25T09:51:17;27.10;;;15.13;;
29302;SDS011;60019;45.556;12.004;2022-11-25T09:57:24;24.13;;;13.90;;
29302;SDS011;60019;45.556;12.004;2022-11-25T10:03:38;19.80;;;12.75;;
29302;SDS011;60019;45.556;12.004;2022-11-25T10:09:41;20.08;;;11.35;;
29302;SDS011;60019;45.556;12.004;2022-11-25T10:15:44;17.80;;;11.10;;
29302;SDS011;60019;45.556;12.004;2022-11-25T10:21:47;19.48;;;10.32;;
29302;SDS011;60019;45.556;12.004;2022-11-25T10:34:10;16.20;;;9.55;;
29302;SDS011;60019;45.556;12.004;2022-11-25T10:40:14;14.55;;;8.75;;
29302;SDS011;60019;45.556;12.004;2022-11-25T10:52:19;14.20;;;7.25;;
29302;SDS011;60019;45.556;12.004;2022-11-25T10:58:29;10.30;;;7.00;;
29302;SDS011;60019;45.556;12.004;2022-11-25T11:04:50;11.23;;;6.65;;
29302;SDS011;60019;45.556;12.004;2022-11-25T11:17:21;22.38;;;12.82;;
29302;SDS011;60019;45.556;12.004;2022-11-25T11:23:28;19.95;;;11.05;;
29302;SDS011;60019;45.556;12.004;2022-11-25T11:29:30;15.55;;;9.95;;
29302;SDS011;60019;45.556;12.004;2022-11-25T11:35:37;16.30;;;9.45;;
29302;SDS011;60019;45.556;12.004;2022-11-25T11:54:04;10.50;;;6.55;;
29302;SDS011;60019;45.556;12.004;2022-11-25T12:00:08;10.13;;;6.97;;
29302;SDS011;60019;45.556;12.004;2022-11-25T12:06:15;9.70;;;6.30;;
29302;SDS011;60019;45.556;12.004;2022-11-25T12:12:18;10.43;;;6.75;;
29302;SDS011;60019;45.556;12.004;2022-11-25T12:24:41;8.50;;;6.40;;
29302;SDS011;60019;45.556;12.004;2022-11-25T12:30:47;9.93;;;5.85;;
29302;SDS011;60019;45.556;12.004;2022-11-25T12:36:50;10.10;;;6.35;;
29302;SDS011;60019;45.556;12.004;2022-11-25T12:42:52;11.10;;;6.03;;
29302;SDS011;60019;45.556;12.004;2022-11-25T12:48:57;7.55;;;5.88;;
29302;SDS011;60019;45.556;12.004;2022-11-25T13:19:22;8.75;;;5.38;;
29302;SDS011;60019;45.556;12.004;2022-11-25T13:25:24;11.20;;;5.40;;
29302;SDS011;60019;45.556;12.004;2022-11-25T13:31:31;11.93;;;5.93;;
29302;SDS011;60019;45.556;12.004;2022-11-25T13:43:35;8.82;;;5.38;;
29302;SDS011;60019;45.556;12.004;2022-11-25T13:49:56;6.03;;;4.82;;
29302;SDS011;60019;45.556;12.004;2022-11-25T13:56:13;8.63;;;5.40;;
29302;SDS011;60019;45.556;12.004;2022-11-25T14:02:23;12.55;;;5.40;;
29302;SDS011;60019;45.556;12.004;2022-11-25T14:20:47;7.28;;;5.43;;
29302;SDS011;60019;45.556;12.004;2022-11-25T14:26:52;7.00;;;5.75;;
29302;SDS011;60019;45.556;12.004;2022-11-25T14:33:00;11.82;;;6.82;;
29302;SDS011;60019;45.556;12.004;2022-11-25T14:39:08;9.80;;;5.78;;
29302;SDS011;60019;45.556;12.004;2022-11-25T14:45:27;9.38;;;5.65;;
29302;SDS011;60019;45.556;12.004;2022-11-25T14:51:33;8.35;;;6.18;;
29302;SDS011;60019;45.556;12.004;2022-11-25T14:57:36;8.20;;;6.72;;
29302;SDS011;60019;45.556;12.004;2022-11-25T15:03:41;8.82;;;6.22;;
29302;SDS011;60019;45.556;12.004;2022-11-25T15:09:42;12.43;;;7.70;;
29302;SDS011;60019;45.556;12.004;2022-11-25T15:15:45;9.95;;;7.35;;
29302;SDS011;60019;45.556;12.004;2022-11-25T15:21:51;9.30;;;7.03;;
29302;SDS011;60019;45.556;12.004;2022-11-25T15:27:54;11.23;;;9.00;;
29302;SDS011;60019;45.556;12.004;2022-11-25T15:33:57;13.25;;;9.02;;
29302;SDS011;60019;45.556;12.004;2022-11-25T15:46:21;9.40;;;8.32;;
29302;SDS011;60019;45.556;12.004;2022-11-25T15:52:24;10.68;;;8.27;;
29302;SDS011;60019;45.556;12.004;2022-11-25T15:58:27;14.77;;;9.13;;
29302;SDS011;60019;45.556;12.004;2022-11-25T16:04:29;11.98;;;9.13;;
29302;SDS011;60019;45.556;12.004;2022-11-25T16:10:32;13.13;;;9.18;;
29302;SDS011;60019;45.556;12.004;2022-11-25T16:16:34;17.52;;;12.23;;
29302;SDS011;60019;45.556;12.004;2022-11-25T16:22:36;17.80;;;13.70;;
29302;SDS011;60019;45.556;12.004;2022-11-25T16:28:41;17.25;;;13.27;;
29302;SDS011;60019;45.556;12.004;2022-11-25T16:34:50;15.48;;;12.07;;
29302;SDS011;60019;45.556;12.004;2022-11-25T16:40:52;16.40;;;11.98;;
29302;SDS011;60019;45.556;12.004;2022-11-25T16:46:54;14.60;;;11.35;;
29302;SDS011;60019;45.556;12.004;2022-11-25T16:52:56;14.90;;;11.10;;
29302;SDS011;60019;45.556;12.004;2022-11-25T16:58:58;16.77;;;10.93;;
29302;SDS011;60019;45.556;12.004;2022-11-25T17:05:15;14.45;;;10.27;;
29302;SDS011;60019;45.556;12.004;2022-11-25T17:11:19;16.80;;;10.70;;
29302;SDS011;60019;45.556;12.004;2022-11-25T17:17:22;16.98;;;11.68;;
29302;SDS011;60019;45.556;12.004;2022-11-25T17:23:25;15.95;;;11.20;;
29302;SDS011;60019;45.556;12.004;2022-11-25T17:29:31;17.45;;;12.25;;
29302;SDS011;60019;45.556;12.004;2022-11-25T17:35:34;22.20;;;14.73;;
29302;SDS011;60019;45.556;12.004;2022-11-25T17:41:37;18.13;;;13.30;;
29302;SDS011;60019;45.556;12.004;2022-11-25T17:47:40;18.48;;;13.60;;
29302;SDS011;60019;45.556;12.004;2022-11-25T17:53:42;19.85;;;12.70;;
29302;SDS011;60019;45.556;12.004;2022-11-25T17:59:44;20.67;;;12.27;;
29302;SDS011;60019;45.556;12.004;2022-11-25T18:05:46;16.85;;;12.05;;
29302;SDS011;60019;45.556;12.004;2022-11-25T18:11:49;15.43;;;12.23;;
29302;SDS011;60019;45.556;12.004;2022-11-25T18:17:53;15.48;;;11.98;;
29302;SDS011;60019;45.556;12.004;2022-11-25T18:23:56;18.20;;;12.18;;
29302;SDS011;60019;45.556;12.004;2022-11-25T18:30:00;17.23;;;11.40;;
29302;SDS011;60019;45.556;12.004;2022-11-25T18:36:02;16.52;;;11.10;;
29302;SDS011;60019;45.556;12.004;2022-11-25T18:42:05;16.10;;;11.05;;
29302;SDS011;60019;45.556;12.004;2022-11-25T18:48:17;19.40;;;12.52;;
29302;SDS011;60019;45.556;12.004;2022-11-25T18:54:19;19.40;;;12.80;;
29302;SDS011;60019;45.556;12.004;2022-11-25T19:00:22;16.85;;;11.85;;
29302;SDS011;60019;45.556;12.004;2022-11-25T19:06:25;17.88;;;12.75;;
29302;SDS011;60019;45.556;12.004;2022-11-25T19:12:29;20.33;;;12.10;;
29302;SDS011;60019;45.556;12.004;2022-11-25T19:18:31;19.38;;;12.27;;
29302;SDS011;60019;45.556;12.004;2022-11-25T19:24:33;17.35;;;12.68;;
29302;SDS011;60019;45.556;12.004;2022-11-25T19:30:35;19.80;;;12.68;;
29302;SDS011;60019;45.556;12.004;2022-11-25T19:36:37;21.45;;;12.00;;
29302;SDS011;60019;45.556;12.004;2022-11-25T19:42:40;20.45;;;12.60;;
29302;SDS011;60019;45.556;12.004;2022-11-25T19:48:41;19.33;;;13.48;;
29302;SDS011;60019;45.556;12.004;2022-11-25T19:54:43;29.25;;;15.20;;
29302;SDS011;60019;45.556;12.004;2022-11-25T20:00:45;17.58;;;12.70;;
29302;SDS011;60019;45.556;12.004;2022-11-25T20:06:47;19.83;;;12.98;;
29302;SDS011;60019;45.556;12.004;2022-11-25T20:12:50;18.95;;;13.07;;
29302;SDS011;60019;45.556;12.004;2022-11-25T20:18:52;20.95;;;12.35;;
29302;SDS011;60019;45.556;12.004;2022-11-25T20:24:54;19.40;;;12.45;;
29302;SDS011;60019;45.556;12.004;2022-11-25T20:30:56;19.35;;;12.40;;
29302;SDS011;60019;45.556;12.004;2022-11-25T20:36:59;18.20;;;12.32;;
29302;SDS011;60019;45.556;12.004;2022-11-25T20:43:00;16.55;;;12.15;;
29302;SDS011;60019;45.556;12.004;2022-11-25T20:49:05;23.58;;;13.82;;
29302;SDS011;60019;45.556;12.004;2022-11-25T20:55:21;20.30;;;13.38;;
29302;SDS011;60019;45.556;12.004;2022-11-25T21:01:23;19.95;;;13.25;;
29302;SDS011;60019;45.556;12.004;2022-11-25T21:07:25;18.27;;;14.05;;
29302;SDS011;60019;45.556;12.004;2022-11-25T21:13:27;20.13;;;13.55;;
29302;SDS011;60019;45.556;12.004;2022-11-25T21:19:29;18.33;;;13.73;;
29302;SDS011;60019;45.556;12.004;2022-11-25T21:25:32;17.60;;;12.55;;
29302;SDS011;60019;45.556;12.004;2022-11-25T21:31:34;20.80;;;13.60;;
29302;SDS011;60019;45.556;12.004;2022-11-25T21:37:36;18.40;;;13.48;;
29302;SDS011;60019;45.556;12.004;2022-11-25T21:43:41;25.90;;;13.15;;
29302;SDS011;60019;45.556;12.004;2022-11-25T21:49:43;16.48;;;12.30;;
29302;SDS011;60019;45.556;12.004;2022-11-25T21:55:45;17.88;;;12.10;;
29302;SDS011;60019;45.556;12.004;2022-11-25T22:01:48;15.63;;;11.55;;
29302;SDS011;60019;45.556;12.004;2022-11-25T22:07:50;17.88;;;12.25;;
29302;SDS011;60019;45.556;12.004;2022-11-25T22:13:54;35.50;;;20.83;;
29302;SDS011;60019;45.556;12.004;2022-11-25T22:19:56;36.17;;;17.85;;
29302;SDS011;60019;45.556;12.004;2022-11-25T22:25:57;26.20;;;16.10;;
29302;SDS011;60019;45.556;12.004;2022-11-25T22:31:59;29.02;;;13.95;;
29302;SDS011;60019;45.556;12.004;2022-11-25T22:38:01;21.15;;;13.50;;
29302;SDS011;60019;45.556;12.004;2022-11-25T22:44:03;21.10;;;13.18;;
29302;SDS011;60019;45.556;12.004;2022-11-25T22:50:06;17.85;;;11.88;;
29302;SDS011;60019;45.556;12.004;2022-11-25T22:56:13;16.08;;;10.82;;
29302;SDS011;60019;45.556;12.004;2022-11-25T23:02:18;21.15;;;11.38;;
29302;SDS011;60019;45.556;12.004;2022-11-25T23:08:24;16.58;;;10.68;;
29302;SDS011;60019;45.556;12.004;2022-11-25T23:14:26;15.20;;;10.93;;
29302;SDS011;60019;45.556;12.004;2022-11-25T23:26:30;18.05;;;11.48;;
29302;SDS011;60019;45.556;12.004;2022-11-25T23:32:31;21.13;;;11.80;;
29302;SDS011;60019;45.556;12.004;2022-11-25T23:38:33;19.48;;;11.40;;
29302;SDS011;60019;45.556;12.004;2022-11-25T23:44:38;19.25;;;11.40;;
29302;SDS011;60019;45.556;12.004;2022-11-25T23:50:40;19.85;;;12.73;;
29302;SDS011;60019;45.556;12.004;2022-11-25T23:56:42;15.02;;;10.40;;
